sensor_id;sensor_type;location;lat;lon;timestamp;P1;durP1;ratioP1;P2;durP2;ratioP2
46983;SDS011;34732;52.112;9.366;2023-09-12T08:12:20;11.23;;;7.35;;
46983;SDS011;34732;52.112;9.366;2023-09-12T08:15:47;10.60;;;7.03;;
46983;SDS011;34732;52.112;9.366;2023-09-12T08:19:08;10.13;;;7.35;;
46983;SDS011;34732;52.112;9.366;2023-09-12T08:26:11;9.73;;;7.25;;
46983;SDS011;34732;52.112;9.366;2023-09-12T08:29:33;11.68;;;7.28;;
46983;SDS011;34732;52.112;9.366;2023-09-12T08:32:59;10.48;;;7.28;;
46983;SDS011;34732;52.112;9.366;2023-09-12T08:36:24;12.02;;;7.07;;
46983;SDS011;34732;52.112;9.366;2023-09-12T08:39:47;9.23;;;6.80;;
46983;SDS011;34732;52.112;9.366;2023-09-12T08:43:11;9.57;;;7.00;;
46983;SDS011;34732;52.112;9.366;2023-09-12T08:46:32;9.07;;;6.57;;
46983;SDS011;34732;52.112;9.366;2023-09-12T08:49:58;12.02;;;6.32;;
46983;SDS011;34732;52.112;9.366;2023-09-12T08:53:19;12.77;;;6.78;;
46983;SDS011;34732;52.112;9.366;2023-09-12T08:56:43;8.18;;;6.18;;
46983;SDS011;34732;52.112;9.366;2023-09-12T09:00:13;9.15;;;5.93;;
46983;SDS011;34732;52.112;9.366;2023-09-12T09:03:42;9.60;;;6.38;;
46983;SDS011;34732;52.112;9.366;2023-09-12T09:07:05;7.50;;;6.22;;
46983;SDS011;34732;52.112;9.366;2023-09-12T09:10:29;7.78;;;6.10;;
46983;SDS011;34732;52.112;9.366;2023-09-12T09:13:55;8.82;;;6.32;;
46983;SDS011;34732;52.112;9.366;2023-09-12T09:17:16;7.78;;;5.88;;
46983;SDS011;34732;52.112;9.366;2023-09-12T09:20:39;9.70;;;6.68;;
46983;SDS011;34732;52.112;9.366;2023-09-12T09:24:04;11.88;;;6.05;;
46983;SDS011;34732;52.112;9.366;2023-09-12T09:30:55;8.98;;;6.07;;
46983;SDS011;34732;52.112;9.366;2023-09-12T09:34:21;8.57;;;6.30;;
46983;SDS011;34732;52.112;9.366;2023-09-12T09:37:45;10.55;;;5.88;;
46983;SDS011;34732;52.112;9.366;2023-09-12T09:41:06;9.40;;;6.10;;
46983;SDS011;34732;52.112;9.366;2023-09-12T09:44:32;7.40;;;5.63;;
46983;SDS011;34732;52.112;9.366;2023-09-12T09:47:56;9.55;;;5.82;;
46983;SDS011;34732;52.112;9.366;2023-09-12T09:51:20;9.80;;;6.22;;
46983;SDS011;34732;52.112;9.366;2023-09-12T09:54:44;9.52;;;5.75;;
46983;SDS011;34732;52.112;9.366;2023-09-12T09:58:07;8.38;;;5.43;;
46983;SDS011;34732;52.112;9.366;2023-09-12T10:01:34;11.07;;;5.70;;
46983;SDS011;34732;52.112;9.366;2023-09-12T10:05:04;7.07;;;5.20;;
46983;SDS011;34732;52.112;9.366;2023-09-12T10:08:26;7.70;;;5.57;;
46983;SDS011;34732;52.112;9.366;2023-09-12T10:11:52;7.18;;;4.32;;
46983;SDS011;34732;52.112;9.366;2023-09-12T10:15:20;5.47;;;4.38;;
46983;SDS011;34732;52.112;9.366;2023-09-12T10:19:23;6.03;;;3.95;;
46983;SDS011;34732;52.112;9.366;2023-09-12T10:22:47;4.95;;;4.45;;
46983;SDS011;34732;52.112;9.366;2023-09-12T10:26:41;5.30;;;4.30;;
46983;SDS011;34732;52.112;9.366;2023-09-12T10:30:06;4.95;;;4.18;;
46983;SDS011;34732;52.112;9.366;2023-09-12T10:33:30;5.20;;;4.40;;
46983;SDS011;34732;52.112;9.366;2023-09-12T10:36:52;5.30;;;4.18;;
46983;SDS011;34732;52.112;9.366;2023-09-12T10:40:13;5.55;;;4.30;;
46983;SDS011;34732;52.112;9.366;2023-09-12T10:43:35;4.95;;;3.92;;
46983;SDS011;34732;52.112;9.366;2023-09-12T10:47:00;5.28;;;3.95;;
46983;SDS011;34732;52.112;9.366;2023-09-12T10:50:22;5.63;;;4.45;;
46983;SDS011;34732;52.112;9.366;2023-09-12T10:53:49;4.68;;;4.25;;
46983;SDS011;34732;52.112;9.366;2023-09-12T10:57:11;4.78;;;4.20;;
46983;SDS011;34732;52.112;9.366;2023-09-12T11:00:34;4.75;;;3.90;;
46983;SDS011;34732;52.112;9.366;2023-09-12T11:03:57;4.93;;;4.38;;
46983;SDS011;34732;52.112;9.366;2023-09-12T11:08:04;4.85;;;4.15;;
46983;SDS011;34732;52.112;9.366;2023-09-12T11:11:19;4.80;;;4.28;;
46983;SDS011;34732;52.112;9.366;2023-09-12T11:15:03;5.03;;;4.25;;
46983;SDS011;34732;52.112;9.366;2023-09-12T11:18:31;7.18;;;4.43;;
46983;SDS011;34732;52.112;9.366;2023-09-12T11:21:54;5.65;;;4.20;;
46983;SDS011;34732;52.112;9.366;2023-09-12T11:25:21;5.32;;;4.75;;
46983;SDS011;34732;52.112;9.366;2023-09-12T11:28:48;4.93;;;4.35;;
46983;SDS011;34732;52.112;9.366;2023-09-12T11:32:11;5.03;;;4.53;;
46983;SDS011;34732;52.112;9.366;2023-09-12T11:35:54;6.07;;;5.00;;
46983;SDS011;34732;52.112;9.366;2023-09-12T11:39:25;5.97;;;4.90;;
46983;SDS011;34732;52.112;9.366;2023-09-12T11:42:58;5.38;;;4.88;;
46983;SDS011;34732;52.112;9.366;2023-09-12T11:46:21;8.38;;;5.25;;
46983;SDS011;34732;52.112;9.366;2023-09-12T11:49:45;11.98;;;6.57;;
46983;SDS011;34732;52.112;9.366;2023-09-12T11:53:10;10.95;;;7.32;;
46983;SDS011;34732;52.112;9.366;2023-09-12T11:56:36;11.05;;;7.43;;
46983;SDS011;34732;52.112;9.366;2023-09-12T12:00:02;12.50;;;7.22;;
46983;SDS011;34732;52.112;9.366;2023-09-12T12:03:28;12.10;;;7.80;;
46983;SDS011;34732;52.112;9.366;2023-09-12T12:06:52;12.20;;;7.28;;
46983;SDS011;34732;52.112;9.366;2023-09-12T12:10:18;9.73;;;6.55;;
46983;SDS011;34732;52.112;9.366;2023-09-12T12:13:41;8.02;;;5.25;;
46983;SDS011;34732;52.112;9.366;2023-09-12T12:17:08;8.40;;;5.60;;
46983;SDS011;34732;52.112;9.366;2023-09-12T12:20:34;9.35;;;5.50;;
46983;SDS011;34732;52.112;9.366;2023-09-12T12:24:00;8.70;;;4.82;;
46983;SDS011;34732;52.112;9.366;2023-09-12T12:27:27;7.32;;;4.97;;
46983;SDS011;34732;52.112;9.366;2023-09-12T12:30:51;8.20;;;4.70;;
46983;SDS011;34732;52.112;9.366;2023-09-12T12:34:16;12.82;;;4.93;;
46983;SDS011;34732;52.112;9.366;2023-09-12T12:37:44;5.38;;;4.57;;
46983;SDS011;34732;52.112;9.366;2023-09-12T12:41:11;10.32;;;4.75;;
46983;SDS011;34732;52.112;9.366;2023-09-12T12:44:38;9.25;;;4.35;;
46983;SDS011;34732;52.112;9.366;2023-09-12T12:48:04;8.20;;;4.20;;
46983;SDS011;34732;52.112;9.366;2023-09-12T12:51:28;7.57;;;4.25;;
46983;SDS011;34732;52.112;9.366;2023-09-12T12:54:51;6.53;;;3.90;;
46983;SDS011;34732;52.112;9.366;2023-09-12T12:58:15;4.72;;;3.83;;
46983;SDS011;34732;52.112;9.366;2023-09-12T13:01:36;6.05;;;3.70;;
46983;SDS011;34732;52.112;9.366;2023-09-12T13:04:58;6.35;;;4.00;;
46983;SDS011;34732;52.112;9.366;2023-09-12T13:08:19;4.63;;;3.22;;
46983;SDS011;34732;52.112;9.366;2023-09-12T13:11:43;5.40;;;3.85;;
46983;SDS011;34732;52.112;9.366;2023-09-12T13:15:07;5.35;;;3.63;;
46983;SDS011;34732;52.112;9.366;2023-09-12T13:18:33;6.75;;;3.15;;
46983;SDS011;34732;52.112;9.366;2023-09-12T13:21:57;4.85;;;3.42;;
46983;SDS011;34732;52.112;9.366;2023-09-12T13:25:20;5.18;;;2.80;;
46983;SDS011;34732;52.112;9.366;2023-09-12T13:28:44;6.95;;;3.38;;
46983;SDS011;34732;52.112;9.366;2023-09-12T13:32:07;5.40;;;3.20;;
46983;SDS011;34732;52.112;9.366;2023-09-12T13:35:30;5.10;;;3.47;;
46983;SDS011;34732;52.112;9.366;2023-09-12T13:38:57;7.32;;;3.53;;
46983;SDS011;34732;52.112;9.366;2023-09-12T13:42:18;5.32;;;2.78;;
46983;SDS011;34732;52.112;9.366;2023-09-12T13:45:41;6.50;;;3.22;;
46983;SDS011;34732;52.112;9.366;2023-09-12T13:49:05;7.07;;;3.22;;
46983;SDS011;34732;52.112;9.366;2023-09-12T13:52:29;5.22;;;2.55;;
46983;SDS011;34732;52.112;9.366;2023-09-12T13:55:56;3.72;;;2.60;;
46983;SDS011;34732;52.112;9.366;2023-09-12T13:59:20;4.22;;;3.17;;
46983;SDS011;34732;52.112;9.366;2023-09-12T14:02:44;4.53;;;2.60;;
46983;SDS011;34732;52.112;9.366;2023-09-12T14:06:12;8.18;;;2.92;;
46983;SDS011;34732;52.112;9.366;2023-09-12T14:09:36;5.93;;;2.92;;
46983;SDS011;34732;52.112;9.366;2023-09-12T14:13:00;5.90;;;3.10;;
46983;SDS011;34732;52.112;9.366;2023-09-12T14:16:26;7.18;;;2.67;;
46983;SDS011;34732;52.112;9.366;2023-09-12T14:19:49;8.80;;;2.42;;
46983;SDS011;34732;52.112;9.366;2023-09-12T14:23:12;7.45;;;2.70;;
46983;SDS011;34732;52.112;9.366;2023-09-12T14:26:38;9.20;;;2.60;;
46983;SDS011;34732;52.112;9.366;2023-09-12T14:30:01;9.13;;;2.60;;
46983;SDS011;34732;52.112;9.366;2023-09-12T14:33:27;7.22;;;2.47;;
46983;SDS011;34732;52.112;9.366;2023-09-12T14:36:50;7.97;;;2.40;;
46983;SDS011;34732;52.112;9.366;2023-09-12T14:40:14;5.68;;;2.45;;
46983;SDS011;34732;52.112;9.366;2023-09-12T14:43:39;4.57;;;2.50;;
46983;SDS011;34732;52.112;9.366;2023-09-12T14:47:01;4.85;;;2.38;;
46983;SDS011;34732;52.112;9.366;2023-09-12T14:50:27;7.57;;;2.83;;
46983;SDS011;34732;52.112;9.366;2023-09-12T14:53:50;3.17;;;2.40;;
46983;SDS011;34732;52.112;9.366;2023-09-12T14:57:18;3.33;;;2.17;;
46983;SDS011;34732;52.112;9.366;2023-09-12T15:00:45;4.63;;;2.78;;
46983;SDS011;34732;52.112;9.366;2023-09-12T15:04:08;4.13;;;2.08;;
46983;SDS011;34732;52.112;9.366;2023-09-12T15:07:39;3.65;;;2.10;;
46983;SDS011;34732;52.112;9.366;2023-09-12T15:11:03;3.17;;;2.60;;
46983;SDS011;34732;52.112;9.366;2023-09-12T15:14:30;4.75;;;2.40;;
46983;SDS011;34732;52.112;9.366;2023-09-12T15:17:54;3.25;;;2.17;;
46983;SDS011;34732;52.112;9.366;2023-09-12T15:21:15;3.83;;;2.47;;
46983;SDS011;34732;52.112;9.366;2023-09-12T15:24:41;3.03;;;1.80;;
46983;SDS011;34732;52.112;9.366;2023-09-12T15:28:07;2.55;;;2.30;;
46983;SDS011;34732;52.112;9.366;2023-09-12T15:31:30;4.57;;;2.28;;
46983;SDS011;34732;52.112;9.366;2023-09-12T15:34:54;2.97;;;2.30;;
46983;SDS011;34732;52.112;9.366;2023-09-12T15:38:19;2.20;;;2.00;;
46983;SDS011;34732;52.112;9.366;2023-09-12T15:41:45;4.10;;;2.35;;
46983;SDS011;34732;52.112;9.366;2023-09-12T15:45:08;3.42;;;2.10;;
46983;SDS011;34732;52.112;9.366;2023-09-12T15:48:33;3.83;;;2.05;;
46983;SDS011;34732;52.112;9.366;2023-09-12T15:52:03;4.78;;;2.00;;
46983;SDS011;34732;52.112;9.366;2023-09-12T15:55:27;3.83;;;2.25;;
46983;SDS011;34732;52.112;9.366;2023-09-12T15:58:56;2.90;;;2.05;;
46983;SDS011;34732;52.112;9.366;2023-09-12T16:02:22;2.70;;;2.03;;
46983;SDS011;34732;52.112;9.366;2023-09-12T16:05:48;3.55;;;2.20;;
46983;SDS011;34732;52.112;9.366;2023-09-12T16:09:14;2.67;;;2.10;;
46983;SDS011;34732;52.112;9.366;2023-09-12T16:12:35;3.60;;;2.08;;
46983;SDS011;34732;52.112;9.366;2023-09-12T16:16:06;5.15;;;2.20;;
46983;SDS011;34732;52.112;9.366;2023-09-12T16:19:33;2.30;;;2.10;;
46983;SDS011;34732;52.112;9.366;2023-09-12T16:22:54;3.83;;;2.30;;
46983;SDS011;34732;52.112;9.366;2023-09-12T16:26:17;3.25;;;2.08;;
46983;SDS011;34732;52.112;9.366;2023-09-12T16:29:38;5.13;;;2.20;;
46983;SDS011;34732;52.112;9.366;2023-09-12T16:33:04;2.60;;;2.25;;
46983;SDS011;34732;52.112;9.366;2023-09-12T16:36:28;2.90;;;2.00;;
46983;SDS011;34732;52.112;9.366;2023-09-12T16:39:51;4.15;;;2.17;;
46983;SDS011;34732;52.112;9.366;2023-09-12T16:43:18;4.13;;;2.10;;
46983;SDS011;34732;52.112;9.366;2023-09-12T16:46:39;6.32;;;2.05;;
46983;SDS011;34732;52.112;9.366;2023-09-12T16:50:05;3.42;;;2.33;;
46983;SDS011;34732;52.112;9.366;2023-09-12T16:53:30;6.32;;;2.60;;
46983;SDS011;34732;52.112;9.366;2023-09-12T16:56:55;2.25;;;2.05;;
46983;SDS011;34732;52.112;9.366;2023-09-12T17:00:19;3.40;;;2.08;;
46983;SDS011;34732;52.112;9.366;2023-09-12T17:03:42;3.47;;;2.72;;
46983;SDS011;34732;52.112;9.366;2023-09-12T17:07:08;3.55;;;2.20;;
46983;SDS011;34732;52.112;9.366;2023-09-12T17:10:34;4.32;;;2.53;;
46983;SDS011;34732;52.112;9.366;2023-09-12T17:13:55;2.47;;;1.80;;
46983;SDS011;34732;52.112;9.366;2023-09-12T17:17:23;2.63;;;1.95;;
46983;SDS011;34732;52.112;9.366;2023-09-12T17:20:46;3.60;;;2.40;;
46983;SDS011;34732;52.112;9.366;2023-09-12T17:24:14;4.93;;;2.15;;
46983;SDS011;34732;52.112;9.366;2023-09-12T17:27:36;4.18;;;2.20;;
46983;SDS011;34732;52.112;9.366;2023-09-12T17:31:06;3.15;;;2.30;;
46983;SDS011;34732;52.112;9.366;2023-09-12T17:34:45;4.97;;;2.10;;
46983;SDS011;34732;52.112;9.366;2023-09-12T17:38:14;3.92;;;2.15;;
46983;SDS011;34732;52.112;9.366;2023-09-12T17:41:36;2.97;;;2.22;;
46983;SDS011;34732;52.112;9.366;2023-09-12T17:49:00;4.40;;;2.20;;
46983;SDS011;34732;52.112;9.366;2023-09-12T17:52:25;5.07;;;2.30;;
46983;SDS011;34732;52.112;9.366;2023-09-12T17:55:54;3.65;;;2.05;;
46983;SDS011;34732;52.112;9.366;2023-09-12T17:59:22;5.43;;;2.20;;
46983;SDS011;34732;52.112;9.366;2023-09-12T18:02:44;3.47;;;1.98;;
46983;SDS011;34732;52.112;9.366;2023-09-12T18:06:05;2.53;;;2.05;;
46983;SDS011;34732;52.112;9.366;2023-09-12T18:09:28;2.70;;;2.45;;
46983;SDS011;34732;52.112;9.366;2023-09-12T18:12:54;3.35;;;2.15;;
46983;SDS011;34732;52.112;9.366;2023-09-12T18:16:20;2.33;;;1.98;;
46983;SDS011;34732;52.112;9.366;2023-09-12T18:19:46;2.65;;;1.88;;
46983;SDS011;34732;52.112;9.366;2023-09-12T18:26:43;5.18;;;2.25;;
46983;SDS011;34732;52.112;9.366;2023-09-12T18:30:07;3.17;;;2.22;;
46983;SDS011;34732;52.112;9.366;2023-09-12T18:33:30;3.53;;;2.33;;
46983;SDS011;34732;52.112;9.366;2023-09-12T18:36:58;3.25;;;2.20;;
46983;SDS011;34732;52.112;9.366;2023-09-12T18:40:19;3.08;;;2.22;;
46983;SDS011;34732;52.112;9.366;2023-09-12T18:43:43;3.25;;;2.30;;
46983;SDS011;34732;52.112;9.366;2023-09-12T18:47:06;4.05;;;2.47;;
46983;SDS011;34732;52.112;9.366;2023-09-12T18:50:32;3.60;;;2.10;;
46983;SDS011;34732;52.112;9.366;2023-09-12T18:53:58;4.00;;;2.20;;
46983;SDS011;34732;52.112;9.366;2023-09-12T18:57:22;3.17;;;2.00;;
46983;SDS011;34732;52.112;9.366;2023-09-12T19:00:50;2.88;;;2.17;;
46983;SDS011;34732;52.112;9.366;2023-09-12T19:04:26;3.05;;;2.20;;
46983;SDS011;34732;52.112;9.366;2023-09-12T19:07:55;3.17;;;2.20;;
46983;SDS011;34732;52.112;9.366;2023-09-12T19:11:16;4.57;;;2.22;;
46983;SDS011;34732;52.112;9.366;2023-09-12T19:14:44;5.10;;;2.17;;
46983;SDS011;34732;52.112;9.366;2023-09-12T19:18:05;4.07;;;2.38;;
46983;SDS011;34732;52.112;9.366;2023-09-12T19:25:56;10.05;;;3.05;;
46983;SDS011;34732;52.112;9.366;2023-09-12T19:29:18;8.15;;;2.83;;
46983;SDS011;34732;52.112;9.366;2023-09-12T19:32:44;8.13;;;2.70;;
46983;SDS011;34732;52.112;9.366;2023-09-12T19:36:13;5.47;;;2.42;;
46983;SDS011;34732;52.112;9.366;2023-09-12T19:39:37;3.88;;;3.20;;
46983;SDS011;34732;52.112;9.366;2023-09-12T19:43:01;3.63;;;3.05;;
46983;SDS011;34732;52.112;9.366;2023-09-12T19:46:29;3.30;;;3.00;;
46983;SDS011;34732;52.112;9.366;2023-09-12T19:49:53;7.13;;;3.75;;
